Time;durP1;ratioP1;P1;durP2;ratioP2;P2;SDS_P1;SDS_P2;PMS_P1;PMS_P2;Temp;Humidity;BMP_temperature;BMP_pressure;BME280_temperature;BME280_humidity;BME280_pressure;Samples;Min_cycle;Max_cycle;Signal;HPM_P1;HPM_P2
2022/11/20 00:00:49;;;;;;;13.90;7.00;;;6.30;99.90;;;;;;5053880;28;20064;-74
2022/11/20 00:03:15;;;;;;;13.80;7.03;;;6.30;99.90;;;;;;5054776;28;20088;-73
2022/11/20 00:05:40;;;;;;;12.50;7.10;;;6.20;99.90;;;;;;5053858;28;20032;-74
2022/11/20 00:08:06;;;;;;;13.17;7.30;;;6.30;99.90;;;;;;5054472;28;20071;-74
2022/11/20 00:10:32;;;;;;;13.90;7.60;;;6.20;99.90;;;;;;5054540;28;20070;-75
2022/11/20 00:13:00;;;;;;;15.53;8.13;;;6.20;99.90;;;;;;5053126;28;20033;-75
2022/11/20 00:15:26;;;;;;;16.40;8.23;;;6.20;99.90;;;;;;5053571;28;20033;-74
2022/11/20 00:17:51;;;;;;;14.73;7.60;;;6.20;99.90;;;;;;5053416;28;20063;-75
2022/11/20 00:20:17;;;;;;;13.80;7.57;;;6.30;99.90;;;;;;5054315;28;20029;-74
2022/11/20 00:22:43;;;;;;;15.83;7.43;;;6.30;99.90;;;;;;5055051;28;20370;-74
2022/11/20 00:25:08;;;;;;;16.23;8.10;;;6.30;99.90;;;;;;5053152;28;20466;-74
2022/11/20 00:27:34;;;;;;;15.40;8.07;;;6.30;99.90;;;;;;5055031;28;20025;-74
2022/11/20 00:30:00;;;;;;;17.10;8.10;;;6.30;99.90;;;;;;5054522;28;20025;-75
2022/11/20 00:32:25;;;;;;;15.23;7.93;;;6.20;99.90;;;;;;5054930;28;20025;-74
2022/11/20 00:34:51;;;;;;;16.20;8.57;;;6.30;99.90;;;;;;5054340;28;20385;-74
2022/11/20 00:37:16;;;;;;;16.00;8.10;;;6.30;99.90;;;;;;5053879;28;20385;-74
2022/11/20 00:39:42;;;;;;;14.77;8.10;;;6.30;99.90;;;;;;5054371;28;20044;-75
2022/11/20 00:42:07;;;;;;;17.10;8.20;;;6.40;99.90;;;;;;5052236;28;20021;-75
2022/11/20 00:44:33;;;;;;;17.07;8.23;;;6.30;99.90;;;;;;5054192;28;20258;-75
2022/11/20 00:46:58;;;;;;;15.60;7.97;;;6.30;99.90;;;;;;5052262;28;20521;-75
2022/11/20 00:49:24;;;;;;;17.37;8.33;;;6.20;99.90;;;;;;5052839;28;20401;-74
2022/11/20 00:51:49;;;;;;;14.87;7.83;;;6.10;99.90;;;;;;5052849;28;20078;-75
2022/11/20 00:54:15;;;;;;;15.90;7.83;;;6.20;99.90;;;;;;5052767;28;20113;-74
2022/11/20 00:56:41;;;;;;;13.67;6.87;;;6.20;99.90;;;;;;5053129;28;20031;-74
2022/11/20 00:59:08;;;;;;;13.50;7.17;;;6.20;99.90;;;;;;5052337;28;20029;-73
2022/11/20 01:01:35;;;;;;;14.93;7.47;;;6.20;99.90;;;;;;5052838;28;20502;-73
2022/11/20 01:04:01;;;;;;;15.40;7.13;;;6.20;99.90;;;;;;5053938;28;20017;-74
2022/11/20 01:06:30;;;;;;;13.40;6.93;;;6.20;99.90;;;;;;5052741;28;20032;-73
2022/11/20 01:08:58;;;;;;;11.93;6.60;;;6.30;99.90;;;;;;5052469;28;20029;-74
2022/11/20 01:11:35;;;;;;;13.30;6.53;;;6.30;99.90;;;;;;5053439;28;20053;-74
2022/11/20 01:14:03;;;;;;;14.03;6.83;;;6.30;99.90;;;;;;5052683;28;20079;-74
2022/11/20 01:16:32;;;;;;;11.57;6.17;;;6.40;99.90;;;;;;5052295;28;20025;-74
2022/11/20 01:19:00;;;;;;;13.20;6.33;;;6.30;99.90;;;;;;5052549;28;20032;-75
2022/11/20 01:21:35;;;;;;;14.13;6.97;;;6.40;99.90;;;;;;5052197;28;20033;-75
2022/11/20 01:24:02;;;;;;;14.10;6.90;;;6.40;99.90;;;;;;5053255;28;20021;-75
2022/11/20 01:26:30;;;;;;;11.80;6.70;;;6.40;99.90;;;;;;5052152;28;20470;-75
2022/11/20 01:28:59;;;;;;;13.53;6.40;;;6.30;99.90;;;;;;5053416;28;20051;-75
2022/11/20 01:31:27;;;;;;;12.80;6.40;;;6.30;99.90;;;;;;5053475;28;20155;-75
2022/11/20 01:33:56;;;;;;;11.63;6.10;;;6.30;99.90;;;;;;5053375;28;20032;-75
2022/11/20 01:36:24;;;;;;;13.77;6.93;;;6.30;99.90;;;;;;5053119;28;20024;-75
2022/11/20 01:38:54;;;;;;;11.93;6.17;;;6.40;99.90;;;;;;5053258;28;20071;-75
2022/11/20 01:44:06;;;;;;;10.97;6.40;;;6.40;99.90;;;;;;5052557;28;20436;-75
2022/11/20 01:46:36;;;;;;;11.53;6.30;;;6.40;99.90;;;;;;5051899;28;20025;-75
2022/11/20 01:49:14;;;;;;;13.70;6.23;;;6.40;99.90;;;;;;5052732;28;20060;-75
2022/11/20 01:51:43;;;;;;;14.03;7.00;;;6.50;99.90;;;;;;5052103;28;20347;-75
2022/11/20 01:54:14;;;;;;;11.57;5.70;;;6.50;99.90;;;;;;5052635;28;20478;-75
2022/11/20 01:56:43;;;;;;;11.10;5.63;;;6.50;99.90;;;;;;5052053;28;20060;-75
2022/11/20 01:59:11;;;;;;;11.20;5.70;;;6.50;99.90;;;;;;5052207;28;20335;-74
2022/11/20 02:01:38;;;;;;;11.27;5.50;;;6.50;99.90;;;;;;5051820;28;20029;-74
2022/11/20 02:04:05;;;;;;;12.70;5.90;;;6.50;99.90;;;;;;5051316;28;20029;-75
2022/11/20 02:06:46;;;;;;;11.00;5.30;;;6.50;99.90;;;;;;5052928;28;20025;-75
2022/11/20 02:09:12;;;;;;;11.27;5.60;;;6.60;99.90;;;;;;5052166;28;20029;-75
2022/11/20 02:11:37;;;;;;;9.33;5.53;;;6.60;99.90;;;;;;5051309;28;20049;-74
2022/11/20 02:14:03;;;;;;;10.43;5.30;;;6.60;99.90;;;;;;5051070;28;20025;-75
2022/11/20 02:16:34;;;;;;;9.47;5.20;;;6.70;99.90;;;;;;5051730;28;20057;-74
2022/11/20 02:19:02;;;;;;;11.10;5.30;;;6.70;99.90;;;;;;5051357;28;20021;-74
2022/11/20 02:21:54;;;;;;;9.57;5.17;;;6.80;99.90;;;;;;5052356;28;20041;-74
2022/11/20 02:24:21;;;;;;;9.77;5.28;;;6.80;99.90;;;;;;5050889;28;20112;-74
2022/11/20 02:26:52;;;;;;;8.87;4.47;;;6.80;99.90;;;;;;5051310;28;20029;-73
2022/11/20 02:29:40;;;;;;;10.10;4.80;;;6.90;99.90;;;;;;5050692;28;20432;-74
2022/11/20 02:32:05;;;;;;;9.43;4.30;;;6.90;99.90;;;;;;5051283;28;20083;-75
2022/11/20 02:34:31;;;;;;;10.03;4.50;;;6.90;99.90;;;;;;5052493;28;20018;-74
2022/11/20 02:36:58;;;;;;;9.37;4.80;;;6.90;99.90;;;;;;5051138;28;20083;-74
2022/11/20 02:39:26;;;;;;;12.20;5.20;;;7.00;99.90;;;;;;5050632;28;20489;-74
2022/11/20 02:41:55;;;;;;;9.37;5.07;;;7.00;99.90;;;;;;5052063;28;20437;-74
2022/11/20 02:44:21;;;;;;;7.73;4.40;;;7.00;99.90;;;;;;5051860;28;20056;-74
2022/11/20 02:46:46;;;;;;;12.25;4.85;;;7.10;99.90;;;;;;5052321;28;20462;-74
2022/11/20 02:49:12;;;;;;;8.67;4.53;;;7.10;99.90;;;;;;5051897;28;20516;-74
2022/11/20 02:51:37;;;;;;;9.10;4.80;;;7.20;99.90;;;;;;5052467;28;20033;-74
2022/11/20 02:54:04;;;;;;;9.98;3.88;;;7.20;99.90;;;;;;5051138;28;20036;-74
2022/11/20 02:56:30;;;;;;;7.28;4.07;;;7.20;99.90;;;;;;5052333;28;20040;-74
2022/11/20 02:58:56;;;;;;;7.13;3.67;;;7.20;99.90;;;;;;5055946;28;20025;-74
2022/11/20 03:01:21;;;;;;;8.03;4.23;;;7.30;99.90;;;;;;5052398;28;20033;-74
2022/11/20 03:03:48;;;;;;;7.87;4.27;;;7.30;99.90;;;;;;5051420;28;20425;-74
2022/11/20 03:06:15;;;;;;;8.30;4.23;;;7.30;99.90;;;;;;5050861;28;20020;-74
2022/11/20 03:08:41;;;;;;;8.67;3.73;;;7.30;99.90;;;;;;5051211;28;20079;-74
2022/11/20 03:11:07;;;;;;;7.15;3.75;;;7.40;99.90;;;;;;5051525;28;20053;-75
2022/11/20 03:13:34;;;;;;;8.32;4.20;;;7.40;99.90;;;;;;5054954;28;20033;-75
2022/11/20 03:16:09;;;;;;;7.77;4.17;;;7.40;99.90;;;;;;5055940;28;20082;-75
2022/11/20 03:18:34;;;;;;;8.07;4.43;;;7.40;99.90;;;;;;5054797;28;20119;-75
2022/11/20 03:21:00;;;;;;;8.27;3.97;;;7.40;99.90;;;;;;5055772;28;20116;-75
2022/11/20 03:23:28;;;;;;;9.40;4.10;;;7.50;99.90;;;;;;5054127;28;20029;-75
2022/11/20 03:25:53;;;;;;;5.47;3.80;;;7.50;99.90;;;;;;5055464;28;20025;-75
2022/11/20 03:28:19;;;;;;;7.33;3.93;;;7.50;99.90;;;;;;5054119;28;20422;-75
2022/11/20 03:30:44;;;;;;;7.23;3.80;;;7.50;99.90;;;;;;5054589;28;20032;-74
2022/11/20 03:33:10;;;;;;;7.82;4.32;;;7.50;99.90;;;;;;5053807;28;20050;-74
2022/11/20 03:35:36;;;;;;;5.63;3.75;;;7.50;99.90;;;;;;5054534;28;20440;-74
2022/11/20 03:38:01;;;;;;;8.60;4.20;;;7.50;99.90;;;;;;5055517;28;20029;-74
2022/11/20 03:40:27;;;;;;;9.30;4.55;;;7.50;99.90;;;;;;5054780;28;20084;-74
2022/11/20 03:42:52;;;;;;;7.57;3.70;;;7.50;99.90;;;;;;5055705;28;20038;-74
2022/11/20 03:45:18;;;;;;;6.55;4.05;;;7.50;99.90;;;;;;5053706;28;20466;-74
2022/11/20 03:47:44;;;;;;;5.25;3.60;;;7.50;99.90;;;;;;5055163;28;20146;-74
2022/11/20 03:50:13;;;;;;;6.90;3.50;;;7.50;99.90;;;;;;5054875;28;20067;-74
2022/11/20 03:52:39;;;;;;;5.82;3.72;;;7.50;99.90;;;;;;5054101;28;20083;-75
2022/11/20 03:55:06;;;;;;;7.93;4.13;;;7.50;99.90;;;;;;5055014;28;20087;-75
2022/11/20 03:57:32;;;;;;;5.63;3.90;;;7.50;99.90;;;;;;5055137;28;20493;-75
2022/11/20 03:59:57;;;;;;;5.95;3.97;;;7.50;99.90;;;;;;5055047;28;20104;-74
2022/11/20 04:02:23;;;;;;;6.00;3.47;;;7.50;99.90;;;;;;5053411;28;20056;-75
2022/11/20 04:04:48;;;;;;;6.75;3.72;;;7.50;99.90;;;;;;5053440;28;20039;-74
2022/11/20 04:07:14;;;;;;;6.33;3.90;;;7.50;99.90;;;;;;5053366;28;20032;-75
2022/11/20 04:09:39;;;;;;;7.75;3.60;;;7.50;99.90;;;;;;5054915;28;20029;-75
2022/11/20 04:12:05;;;;;;;7.13;3.47;;;7.60;99.90;;;;;;5055076;28;20057;-75
2022/11/20 04:14:32;;;;;;;7.27;3.17;;;7.60;99.90;;;;;;5054329;28;20140;-74
2022/11/20 04:16:57;;;;;;;7.17;3.73;;;7.60;99.90;;;;;;5055094;28;20061;-74
2022/11/20 04:19:23;;;;;;;4.20;2.83;;;7.60;99.90;;;;;;5054202;28;20458;-75
2022/11/20 04:21:48;;;;;;;6.03;3.28;;;7.60;99.90;;;;;;5053243;28;20029;-75
2022/11/20 04:24:14;;;;;;;6.18;3.50;;;7.60;99.90;;;;;;5054161;28;20032;-74
2022/11/20 04:26:40;;;;;;;5.63;3.15;;;7.60;99.90;;;;;;5053419;28;20059;-74
2022/11/20 04:29:05;;;;;;;5.73;3.20;;;7.60;99.90;;;;;;5054520;28;20078;-74
2022/11/20 04:31:33;;;;;;;4.75;2.97;;;7.60;99.90;;;;;;5054015;28;20104;-73
2022/11/20 04:34:05;;;;;;;6.03;2.70;;;7.70;99.90;;;;;;5054204;28;20494;-74
2022/11/20 04:36:31;;;;;;;6.55;3.15;;;7.70;99.90;;;;;;5052759;28;20029;-73
2022/11/20 04:38:59;;;;;;;5.10;3.05;;;7.70;99.90;;;;;;5054393;28;20040;-74
2022/11/20 04:41:28;;;;;;;9.85;3.60;;;7.70;99.90;;;;;;5052158;28;20127;-73
2022/11/20 04:43:59;;;;;;;6.88;2.83;;;7.70;99.90;;;;;;5054050;28;20471;-73
2022/11/20 04:46:26;;;;;;;5.07;2.80;;;7.70;99.90;;;;;;5052574;28;20033;-73
2022/11/20 04:48:51;;;;;;;5.82;2.80;;;7.70;99.90;;;;;;5052901;28;20391;-73
2022/11/20 04:51:17;;;;;;;5.07;2.92;;;7.70;99.90;;;;;;5052436;28;20036;-73
2022/11/20 04:53:43;;;;;;;6.30;2.80;;;7.70;99.90;;;;;;5052859;28;20036;-73
2022/11/20 04:56:10;;;;;;;5.80;2.80;;;7.70;99.90;;;;;;5052858;28;20437;-74
2022/11/20 04:58:37;;;;;;;8.07;3.03;;;7.70;99.90;;;;;;5052973;28;20024;-74
2022/11/20 05:01:14;;;;;;;3.92;2.72;;;7.70;99.90;;;;;;5053632;28;20029;-74
2022/11/20 05:03:41;;;;;;;5.00;2.78;;;7.70;99.90;;;;;;5056064;28;20036;-74
2022/11/20 05:06:07;;;;;;;5.43;2.90;;;7.70;99.90;;;;;;5052544;28;20103;-73
2022/11/20 05:08:33;;;;;;;6.63;3.03;;;7.70;99.90;;;;;;5052285;28;20039;-74
2022/11/20 05:11:25;;;;;;;4.53;2.45;;;7.70;99.90;;;;;;5051978;28;20044;-74
2022/11/20 05:13:51;;;;;;;4.38;2.80;;;7.70;99.90;;;;;;5052354;28;20048;-74
2022/11/20 05:16:26;;;;;;;4.75;2.90;;;7.70;99.90;;;;;;5051891;28;20024;-74
2022/11/20 05:18:54;;;;;;;5.50;2.70;;;7.70;99.90;;;;;;5052592;28;20025;-73
2022/11/20 05:21:20;;;;;;;4.95;2.97;;;7.70;99.90;;;;;;5051799;28;20025;-74
2022/11/20 05:23:46;;;;;;;7.45;3.13;;;7.70;99.90;;;;;;5052437;28;20035;-73
2022/11/20 05:26:18;;;;;;;5.30;2.95;;;7.70;99.90;;;;;;5053526;28;20100;-74
2022/11/20 05:28:43;;;;;;;4.85;2.97;;;7.70;99.90;;;;;;5053516;28;20025;-74
2022/11/20 05:31:11;;;;;;;4.82;3.30;;;7.70;99.90;;;;;;5052057;28;20120;-74
2022/11/20 05:33:41;;;;;;;6.20;3.10;;;7.60;99.90;;;;;;5050787;28;20474;-74
2022/11/20 05:36:07;;;;;;;3.92;3.08;;;7.60;99.90;;;;;;5052071;28;20111;-73
2022/11/20 05:38:33;;;;;;;5.30;3.33;;;7.70;99.90;;;;;;5051471;28;20162;-74
2022/11/20 05:41:16;;;;;;;5.50;2.70;;;7.70;99.90;;;;;;5052221;28;20080;-74
2022/11/20 05:43:43;;;;;;;4.80;2.55;;;7.60;99.90;;;;;;5052311;28;20082;-74
2022/11/20 05:46:11;;;;;;;7.00;2.95;;;7.70;99.90;;;;;;5052035;28;20021;-74
2022/11/20 05:48:38;;;;;;;6.38;3.00;;;7.60;99.90;;;;;;5051527;28;20484;-74
2022/11/20 05:51:05;;;;;;;3.72;2.92;;;7.60;99.90;;;;;;5051710;28;20029;-74
2022/11/20 05:53:32;;;;;;;5.33;3.10;;;7.60;99.90;;;;;;5051610;28;20029;-74
2022/11/20 05:56:05;;;;;;;3.78;2.58;;;7.60;99.90;;;;;;5053262;28;20036;-74
2022/11/20 05:58:32;;;;;;;5.57;2.78;;;7.60;99.90;;;;;;5051432;28;20035;-74
2022/11/20 06:01:25;;;;;;;4.83;2.80;;;7.60;99.90;;;;;;5051437;28;20039;-74
2022/11/20 06:03:52;;;;;;;4.75;3.05;;;7.60;99.90;;;;;;5050228;28;20124;-75
2022/11/20 06:06:19;;;;;;;5.25;3.00;;;7.60;99.90;;;;;;5052503;28;20021;-75
2022/11/20 06:08:45;;;;;;;5.75;3.13;;;7.60;99.90;;;;;;5053020;28;20107;-74
2022/11/20 06:11:13;;;;;;;7.40;3.08;;;7.60;99.90;;;;;;5060530;28;20053;-75
2022/11/20 06:13:38;;;;;;;5.05;3.13;;;7.60;99.90;;;;;;5062143;28;20067;-73
2022/11/20 06:16:04;;;;;;;4.18;2.55;;;7.60;99.90;;;;;;5056359;28;20082;-73
2022/11/20 06:18:30;;;;;;;6.32;2.90;;;7.60;99.90;;;;;;5052236;28;20029;-73
2022/11/20 06:21:01;;;;;;;6.35;2.63;;;7.60;99.90;;;;;;5052627;28;20025;-73
2022/11/20 06:23:28;;;;;;;4.65;2.97;;;7.50;99.90;;;;;;5050893;28;20035;-75
2022/11/20 06:25:54;;;;;;;4.65;2.28;;;7.60;99.90;;;;;;5051424;28;20036;-73
2022/11/20 06:28:19;;;;;;;4.95;3.03;;;7.60;99.90;;;;;;5050948;28;20028;-74
2022/11/20 06:30:45;;;;;;;4.55;2.80;;;7.50;99.90;;;;;;5052824;28;20032;-73
2022/11/20 06:33:11;;;;;;;5.50;2.53;;;7.50;99.90;;;;;;5052351;28;20025;-74
2022/11/20 06:35:36;;;;;;;7.37;2.80;;;7.50;99.90;;;;;;5050741;28;20488;-74
2022/11/20 06:38:02;;;;;;;5.30;2.70;;;7.60;99.90;;;;;;5051218;28;20025;-74
2022/11/20 06:40:28;;;;;;;4.70;2.70;;;7.50;99.90;;;;;;5051843;28;20115;-74
2022/11/20 06:42:54;;;;;;;3.35;2.28;;;7.50;99.90;;;;;;5052494;28;20459;-73
2022/11/20 06:45:21;;;;;;;3.63;2.35;;;7.50;99.90;;;;;;5052543;28;20424;-74
2022/11/20 06:47:46;;;;;;;4.55;2.15;;;7.50;99.90;;;;;;5056209;28;20021;-74
2022/11/20 06:50:13;;;;;;;3.78;2.25;;;7.60;99.90;;;;;;5055361;28;20067;-74
2022/11/20 06:52:38;;;;;;;5.53;2.00;;;7.60;99.90;;;;;;5056003;28;20044;-74
2022/11/20 06:55:04;;;;;;;3.35;1.92;;;7.60;99.90;;;;;;5055078;28;20028;-74
2022/11/20 06:57:30;;;;;;;3.17;2.08;;;7.60;99.90;;;;;;5054648;28;20028;-74
2022/11/20 06:59:55;;;;;;;3.13;2.00;;;7.60;99.90;;;;;;5054966;28;20043;-74
2022/11/20 07:02:21;;;;;;;3.40;1.80;;;7.60;99.90;;;;;;5054615;28;20029;-74
2022/11/20 07:04:46;;;;;;;3.53;2.20;;;7.60;99.90;;;;;;5056222;28;20100;-74
2022/11/20 07:07:12;;;;;;;3.20;2.13;;;7.60;99.90;;;;;;5056440;28;20025;-75
2022/11/20 07:09:37;;;;;;;5.70;1.85;;;7.70;99.90;;;;;;5054532;28;20553;-75
2022/11/20 07:12:03;;;;;;;4.25;2.13;;;7.60;99.90;;;;;;5056006;28;20107;-75
2022/11/20 07:14:29;;;;;;;5.15;2.40;;;7.70;99.90;;;;;;5054204;28;20120;-74
2022/11/20 07:16:55;;;;;;;2.50;1.80;;;7.70;99.90;;;;;;5055888;28;20033;-74
2022/11/20 07:19:20;;;;;;;4.25;2.08;;;7.60;99.90;;;;;;5054109;28;20036;-77
2022/11/20 07:21:46;;;;;;;1.88;1.60;;;7.60;99.90;;;;;;5054635;28;20461;-76
2022/11/20 07:24:12;;;;;;;4.47;1.80;;;7.60;99.90;;;;;;5054758;28;20033;-77
2022/11/20 07:26:37;;;;;;;3.20;1.83;;;7.60;99.90;;;;;;5055495;28;20048;-77
2022/11/20 07:29:03;;;;;;;5.10;1.98;;;7.60;99.90;;;;;;5055956;28;20025;-76
2022/11/20 07:31:28;;;;;;;2.87;1.70;;;7.60;99.90;;;;;;5054127;28;20083;-76
2022/11/20 07:33:54;;;;;;;2.20;1.70;;;7.60;99.90;;;;;;5055820;28;20036;-77
2022/11/20 07:36:20;;;;;;;2.90;1.60;;;7.60;99.90;;;;;;5054636;28;20470;-76
2022/11/20 07:38:45;;;;;;;2.97;2.00;;;7.60;99.90;;;;;;5054374;28;20026;-75
2022/11/20 07:41:11;;;;;;;3.97;1.90;;;7.50;99.90;;;;;;5055551;28;20049;-74
2022/11/20 07:43:37;;;;;;;3.28;1.85;;;7.50;99.90;;;;;;5053779;28;20029;-74
2022/11/20 07:46:03;;;;;;;3.30;2.00;;;7.50;99.90;;;;;;5054191;28;20025;-74
2022/11/20 07:48:29;;;;;;;4.05;1.90;;;7.50;99.90;;;;;;5053640;28;20120;-75
2022/11/20 07:50:55;;;;;;;5.45;2.00;;;7.50;99.90;;;;;;5055301;28;20108;-75
2022/11/20 07:53:22;;;;;;;3.60;1.90;;;7.50;99.90;;;;;;5055158;28;20029;-77
2022/11/20 07:55:48;;;;;;;4.03;2.13;;;7.60;99.90;;;;;;5055086;28;20071;-75
2022/11/20 07:58:16;;;;;;;5.22;2.30;;;7.50;99.90;;;;;;5053049;28;20033;-75
2022/11/20 08:00:42;;;;;;;5.07;2.47;;;7.50;99.90;;;;;;5053510;28;20510;-75
2022/11/20 08:03:07;;;;;;;6.38;2.35;;;7.50;99.90;;;;;;5053849;28;20124;-74
2022/11/20 08:05:33;;;;;;;4.50;2.40;;;7.50;99.90;;;;;;5053293;28;20060;-73
2022/11/20 08:07:59;;;;;;;3.47;2.20;;;7.50;99.90;;;;;;5053499;28;20025;-74
2022/11/20 08:10:25;;;;;;;6.30;2.40;;;7.50;99.90;;;;;;5052885;28;20048;-75
2022/11/20 08:15:38;;;;;;;4.20;2.85;;;7.50;99.90;;;;;;5054475;28;20531;-75
2022/11/20 08:18:06;;;;;;;4.57;2.70;;;7.50;99.90;;;;;;5054575;28;20082;-74
2022/11/20 08:20:32;;;;;;;5.72;2.92;;;7.50;99.90;;;;;;5052968;28;20036;-75
2022/11/20 08:23:05;;;;;;;5.27;2.50;;;7.60;99.90;;;;;;5053800;28;20025;-74
2022/11/20 08:25:31;;;;;;;4.75;2.58;;;7.50;99.90;;;;;;5052521;28;20025;-73
2022/11/20 08:27:59;;;;;;;4.55;2.42;;;7.60;99.90;;;;;;5053448;28;20159;-73
2022/11/20 08:30:25;;;;;;;4.65;2.67;;;7.60;99.90;;;;;;5052822;28;20033;-74
2022/11/20 08:32:51;;;;;;;3.33;2.42;;;7.60;99.90;;;;;;5053236;28;20470;-73
2022/11/20 08:35:17;;;;;;;5.22;2.83;;;7.60;99.90;;;;;;5053243;28;20467;-74
2022/11/20 08:37:46;;;;;;;5.35;2.75;;;7.60;99.90;;;;;;5053865;28;20087;-74
2022/11/20 08:40:12;;;;;;;4.65;2.70;;;7.60;99.90;;;;;;5053895;28;20446;-74
2022/11/20 08:42:45;;;;;;;5.28;3.38;;;7.70;99.90;;;;;;5052380;28;20116;-74
2022/11/20 08:45:10;;;;;;;5.03;2.33;;;7.60;99.90;;;;;;5053190;28;20083;-75
2022/11/20 08:47:36;;;;;;;4.45;2.47;;;7.70;99.90;;;;;;5052691;28;20466;-75
2022/11/20 08:50:02;;;;;;;4.20;2.55;;;7.70;99.90;;;;;;5053015;28;20025;-74
2022/11/20 08:52:28;;;;;;;5.22;2.70;;;7.70;99.90;;;;;;5052459;28;20025;-73
2022/11/20 08:54:53;;;;;;;5.03;2.50;;;7.80;99.90;;;;;;5052811;28;20025;-74
2022/11/20 08:57:19;;;;;;;4.90;2.30;;;7.80;99.90;;;;;;5052947;28;20021;-74
2022/11/20 08:59:44;;;;;;;4.30;2.17;;;7.80;99.90;;;;;;5053400;28;20351;-74
2022/11/20 09:02:11;;;;;;;4.72;2.83;;;7.80;99.90;;;;;;5053931;28;20036;-74
2022/11/20 09:04:37;;;;;;;6.03;2.67;;;7.80;99.90;;;;;;5052143;28;20025;-74
2022/11/20 09:07:03;;;;;;;3.72;2.30;;;7.80;99.90;;;;;;5053500;28;20032;-75
2022/11/20 09:09:28;;;;;;;4.10;2.45;;;7.80;99.90;;;;;;5051989;28;20390;-75
2022/11/20 09:11:54;;;;;;;5.28;2.38;;;7.80;99.90;;;;;;5051891;28;20059;-75
2022/11/20 09:14:21;;;;;;;3.22;2.30;;;7.90;99.90;;;;;;5053630;28;20099;-75
2022/11/20 09:16:46;;;;;;;4.63;2.35;;;8.00;99.90;;;;;;5051611;28;20132;-76
2022/11/20 09:19:12;;;;;;;4.07;2.28;;;8.00;99.90;;;;;;5053790;28;20085;-76
2022/11/20 09:21:37;;;;;;;4.78;2.50;;;8.00;99.90;;;;;;5051784;28;20493;-75
2022/11/20 09:24:04;;;;;;;3.33;2.30;;;8.00;99.90;;;;;;5052183;28;20033;-75
2022/11/20 09:26:30;;;;;;;4.68;2.50;;;8.10;99.90;;;;;;5052972;28;20068;-75
2022/11/20 09:28:55;;;;;;;5.45;2.47;;;8.10;99.90;;;;;;5053356;28;20458;-75
2022/11/20 09:31:26;;;;;;;7.03;2.47;;;8.20;99.90;;;;;;5051678;28;20029;-75
2022/11/20 09:33:51;;;;;;;3.60;2.28;;;8.20;99.90;;;;;;5051748;28;20121;-75
2022/11/20 09:36:18;;;;;;;3.40;2.08;;;8.30;99.90;;;;;;5053342;28;20056;-75
2022/11/20 09:38:47;;;;;;;3.78;2.35;;;8.30;99.90;;;;;;5052542;28;20028;-76
2022/11/20 09:41:36;;;;;;;4.32;2.22;;;8.30;99.90;;;;;;5052661;28;20134;-75
2022/11/20 09:44:24;;;;;;;4.43;2.17;;;8.20;99.90;;;;;;5051082;28;20075;-74
2022/11/20 09:47:27;;;;;;;4.28;2.25;;;8.30;99.90;;;;;;5048911;28;20389;-75
2022/11/20 09:50:30;;;;;;;3.70;2.30;;;8.30;99.90;;;;;;5046603;28;20370;-75
2022/11/20 09:53:10;;;;;;;4.47;2.28;;;8.20;99.90;;;;;;5046905;28;20029;-76
2022/11/20 09:55:37;;;;;;;5.93;2.45;;;8.20;99.90;;;;;;5051184;28;20021;-74
2022/11/20 09:58:06;;;;;;;3.28;2.28;;;8.20;99.90;;;;;;5051263;28;20104;-75
2022/11/20 10:00:32;;;;;;;4.20;2.50;;;8.20;99.90;;;;;;5050886;28;20025;-76
2022/11/20 10:03:05;;;;;;;3.53;2.40;;;8.20;99.90;;;;;;5051335;28;20056;-75
2022/11/20 10:05:44;;;;;;;4.05;2.42;;;8.20;99.90;;;;;;5049604;28;20021;-75
2022/11/20 10:08:48;;;;;;;3.95;2.53;;;8.30;99.90;;;;;;5059282;28;20466;-75
2022/11/20 10:11:24;;;;;;;4.10;2.03;;;8.30;99.90;;;;;;5045737;28;20048;-74
2022/11/20 10:13:53;;;;;;;3.85;2.35;;;8.30;99.90;;;;;;5050019;28;20133;-75
2022/11/20 10:16:27;;;;;;;4.78;2.42;;;8.30;99.90;;;;;;5051006;28;20514;-75
2022/11/20 10:19:02;;;;;;;4.38;2.88;;;8.30;99.90;;;;;;5052218;28;20477;-75
2022/11/20 10:21:46;;;;;;;5.57;2.60;;;8.30;99.90;;;;;;5032624;28;20472;-75
2022/11/20 10:24:33;;;;;;;5.35;2.92;;;8.40;99.90;;;;;;5033654;28;20025;-75
2022/11/20 10:27:26;;;;;;;8.20;3.53;;;8.40;99.90;;;;;;5052736;28;20036;-76
2022/11/20 10:30:07;;;;;;;4.95;3.20;;;8.50;99.90;;;;;;5050963;28;20040;-75
2022/11/20 10:32:45;;;;;;;6.93;3.15;;;8.40;99.90;;;;;;5051011;28;20029;-75
2022/11/20 10:35:18;;;;;;;5.93;3.45;;;8.50;99.90;;;;;;5051417;28;20049;-75
2022/11/20 10:37:47;;;;;;;4.78;2.80;;;8.50;99.90;;;;;;5052187;28;20025;-75
2022/11/20 10:40:37;;;;;;;6.75;2.80;;;8.60;99.90;;;;;;5050745;28;20043;-73
2022/11/20 10:43:12;;;;;;;6.65;2.75;;;8.70;99.90;;;;;;5058344;28;20082;-74
2022/11/20 10:46:03;;;;;;;5.72;2.90;;;8.70;99.90;;;;;;5060108;28;20112;-74
2022/11/20 10:48:31;;;;;;;4.05;2.40;;;8.70;99.90;;;;;;5067471;28;20025;-75
2022/11/20 10:51:02;;;;;;;5.72;2.70;;;8.80;99.90;;;;;;5050920;28;20116;-77
2022/11/20 10:53:53;;;;;;;4.25;2.53;;;8.90;99.90;;;;;;5053810;28;20032;-77
2022/11/20 10:56:30;;;;;;;7.20;2.40;;;8.90;99.90;;;;;;5068671;28;20103;-76
2022/11/20 10:59:08;;;;;;;3.17;2.38;;;8.90;99.90;;;;;;5050964;28;20490;-75
2022/11/20 11:01:41;;;;;;;5.13;2.60;;;8.90;99.90;;;;;;5052109;28;20056;-77
2022/11/20 11:04:23;;;;;;;5.20;2.28;;;9.00;99.90;;;;;;5051848;28;20021;-76
2022/11/20 11:06:50;;;;;;;3.90;2.05;;;9.00;99.90;;;;;;5052477;28;20067;-76
2022/11/20 11:09:24;;;;;;;3.75;1.83;;;9.00;99.90;;;;;;5064392;28;20043;-76
2022/11/20 11:11:49;;;;;;;4.88;2.03;;;9.00;99.90;;;;;;5061860;28;20425;-76
2022/11/20 11:14:15;;;;;;;3.05;1.63;;;9.00;99.90;;;;;;5056377;28;20029;-76
2022/11/20 11:16:56;;;;;;;4.75;1.80;;;9.10;99.90;;;;;;5066621;28;20040;-76
2022/11/20 11:19:22;;;;;;;7.05;2.00;;;9.20;99.90;;;;;;5059027;28;20462;-76
2022/11/20 11:21:57;;;;;;;3.40;1.40;;;9.20;99.90;;;;;;5057930;28;20040;-76
2022/11/20 11:24:28;;;;;;;7.03;1.85;;;9.30;99.90;;;;;;5067305;28;20496;-76
2022/11/20 11:27:11;;;;;;;5.30;1.70;;;9.20;99.90;;;;;;5055721;28;20362;-76
2022/11/20 11:29:36;;;;;;;2.78;1.70;;;9.30;99.90;;;;;;5058057;28;20039;-74
2022/11/20 11:32:13;;;;;;;6.82;1.75;;;9.50;99.90;;;;;;5053966;28;20029;-75
2022/11/20 11:34:39;;;;;;;2.85;1.80;;;9.70;99.90;;;;;;5055599;28;20037;-74
2022/11/20 11:37:12;;;;;;;7.88;1.80;;;9.70;99.90;;;;;;5061095;28;20103;-74
2022/11/20 11:39:41;;;;;;;3.60;1.30;;;9.70;99.90;;;;;;5062595;28;20021;-75
2022/11/20 11:42:15;;;;;;;2.00;1.40;;;9.70;99.90;;;;;;5069637;28;20470;-74
2022/11/20 11:47:31;;;;;;;7.28;1.60;;;9.70;99.90;;;;;;5056583;28;20044;-75
2022/11/20 11:50:09;;;;;;;3.83;1.27;;;9.90;99.90;;;;;;5062429;28;20029;-74
2022/11/20 11:52:57;;;;;;;7.85;1.77;;;10.20;99.90;;;;;;5069427;28;20028;-75
2022/11/20 11:55:31;;;;;;;4.93;1.67;;;10.50;99.90;;;;;;5063095;28;20027;-73
2022/11/20 11:58:15;;;;;;;3.55;1.60;;;10.70;99.90;;;;;;5070421;28;20032;-74
2022/11/20 12:01:11;;;;;;;2.75;1.20;;;11.00;99.90;;;;;;5053291;28;20086;-76
2022/11/20 12:03:41;;;;;;;4.28;1.17;;;11.10;99.90;;;;;;5060627;28;20037;-76
2022/11/20 12:06:15;;;;;;;3.13;0.82;;;11.40;99.90;;;;;;5069250;28;20052;-77
2022/11/20 12:09:04;;;;;;;1.75;0.80;;;11.50;99.90;;;;;;5056204;28;20029;-77
2022/11/20 12:11:49;;;;;;;1.75;0.90;;;11.70;99.90;;;;;;5052637;28;20049;-77
2022/11/20 12:14:35;;;;;;;4.65;0.90;;;11.40;99.90;;;;;;5055342;28;20067;-76
2022/11/20 12:17:02;;;;;;;2.03;0.90;;;11.40;99.90;;;;;;5057818;28;20044;-75
2022/11/20 12:19:33;;;;;;;4.38;1.13;;;11.20;99.90;;;;;;5053414;28;20021;-77
2022/11/20 12:21:58;;;;;;;3.80;0.93;;;10.90;99.90;;;;;;5053038;28;20021;-75
2022/11/20 12:24:33;;;;;;;6.05;1.02;;;10.60;99.90;;;;;;5051785;28;20100;-76
2022/11/20 12:27:15;;;;;;;3.40;1.00;;;10.60;99.90;;;;;;5052505;28;20036;-75
2022/11/20 12:30:02;;;;;;;4.20;1.20;;;10.60;99.90;;;;;;5063332;28;20032;-74
2022/11/20 12:32:42;;;;;;;3.20;1.02;;;10.30;99.90;;;;;;5067786;28;20025;-76
2022/11/20 12:35:32;;;;;;;4.03;1.05;;;10.40;99.90;;;;;;5058942;28;20024;-75
2022/11/20 12:38:19;;;;;;;3.53;0.88;;;10.80;99.90;;;;;;5059122;28;20063;-76
2022/11/20 12:40:57;;;;;;;4.90;1.27;;;11.10;99.90;;;;;;5059047;28;20099;-75
2022/11/20 12:46:36;;;;;;;3.67;0.90;;;11.80;99.90;;;;;;5064801;28;20393;-74
2022/11/20 12:49:08;;;;;;;3.25;0.75;;;11.90;99.90;;;;;;5045636;28;20025;-74
2022/11/20 12:51:59;;;;;;;6.97;0.70;;;12.00;99.90;;;;;;5062080;28;20028;-74
2022/11/20 12:55:08;;;;;;;3.17;0.65;;;12.00;99.90;;;;;;5070327;28;20024;-74
2022/11/20 12:57:49;;;;;;;1.48;0.70;;;12.00;99.90;;;;;;5058129;28;20109;-75
2022/11/20 13:00:19;;;;;;;1.80;0.60;;;12.10;99.90;;;;;;5056714;28;20211;-76
2022/11/20 13:03:09;;;;;;;2.33;0.80;;;12.10;99.90;;;;;;5069820;28;20104;-75
2022/11/20 13:05:51;;;;;;;3.80;0.90;;;12.10;99.90;;;;;;5054243;28;20029;-75
2022/11/20 13:08:24;;;;;;;1.88;0.82;;;12.30;99.90;;;;;;5059974;28;20032;-75
2022/11/20 13:10:58;;;;;;;1.90;0.70;;;12.40;99.90;;;;;;5049399;28;20493;-75
2022/11/20 13:14:03;;;;;;;4.05;0.60;;;12.10;99.90;;;;;;5067519;28;20083;-78
2022/11/20 13:16:41;;;;;;;1.75;0.70;;;11.70;99.90;;;;;;5063262;28;20118;-79
2022/11/20 13:19:13;;;;;;;1.92;0.60;;;11.40;99.90;;;;;;5065978;28;20056;-73